createdAt,value
2022-12-16T00:00:37.925Z,94180.22
2022-12-16T00:05:44.413Z,94183.44
2022-12-16T00:10:46.084Z,94178.97
2022-12-16T00:15:47.602Z,94189.22
2022-12-16T00:20:52.272Z,94174.94
2022-12-16T00:25:56.457Z,94183.84
2022-12-16T00:30:57.887Z,94185.22
2022-12-16T00:35:59.291Z,94189.69
2022-12-16T00:41:01.121Z,94189.81
2022-12-16T00:46:02.704Z,94174.31
2022-12-16T00:51:04.367Z,94194.09
2022-12-16T00:56:08.639Z,94199.66
2022-12-16T01:01:10.729Z,94217.78
2022-12-16T01:06:15.469Z,94214.56
2022-12-16T01:11:19.291Z,94213.34
2022-12-16T01:16:20.793Z,94216.72
2022-12-16T01:21:22.443Z,94234.94
2022-12-16T01:26:24.025Z,94228.97
2022-12-16T01:31:25.664Z,94231.44
2022-12-16T01:36:27.343Z,94227.47
2022-12-16T01:41:28.885Z,94238.22
2022-12-16T01:46:30.562Z,94255.97
2022-12-16T01:51:38.867Z,94263.09
2022-12-16T01:56:46.042Z,94271.84
2022-12-16T02:01:47.581Z,94276.31
2022-12-16T02:06:49.387Z,94270.41
2022-12-16T02:12:20.448Z,94274.16
2022-12-16T02:17:56.923Z,94255.38
2022-12-16T02:23:26.203Z,94267.59
2022-12-16T02:29:03.089Z,94275.31
2022-12-16T02:34:30.501Z,94280.25
2022-12-16T02:39:36.991Z,94299.53
2022-12-16T02:45:04.786Z,94293.16
2022-12-16T02:50:20.382Z,94300.47
2022-12-16T02:55:32.877Z,94294.66
2022-12-16T03:00:48.086Z,94298.91
2022-12-16T03:05:51.349Z,94308.63
2022-12-16T03:11:03.205Z,94305.66
2022-12-16T03:16:07.451Z,94310.28
2022-12-16T03:21:10.126Z,94303.56
2022-12-16T03:26:18.947Z,94317.75
2022-12-16T03:31:55.613Z,94327.00
2022-12-16T03:37:02.594Z,94336.22
2022-12-16T03:42:05.379Z,94342.84
2022-12-16T03:47:06.852Z,94337.75
2022-12-16T03:52:08.738Z,94348.03
2022-12-16T03:57:15.017Z,94343.66
2022-12-16T04:02:17.294Z,94352.16
2022-12-16T04:07:18.921Z,94357.72
2022-12-16T04:12:20.912Z,94365.31
2022-12-16T04:17:22.414Z,94370.28
2022-12-16T04:22:27.507Z,94382.94
2022-12-16T04:27:29.049Z,94382.94
2022-12-16T04:32:31.225Z,94389.88
2022-12-16T04:37:32.724Z,94403.16
2022-12-16T04:42:34.223Z,94414.97
2022-12-16T04:47:35.685Z,94420.41
2022-12-16T04:52:37.107Z,94430.09
2022-12-16T04:57:38.622Z,94423.47
2022-12-16T05:02:40.157Z,94432.81
2022-12-16T05:07:41.692Z,94438.13
2022-12-16T05:12:43.208Z,94444.28
2022-12-16T05:17:44.648Z,94446.91
2022-12-16T05:22:46.230Z,94466.06
2022-12-16T05:27:52.109Z,94475.03
2022-12-16T05:32:53.568Z,94480.97
2022-12-16T05:37:57.126Z,94486.41
2022-12-16T05:42:58.569Z,94497.50
2022-12-16T05:48:00.033Z,94505.56
2022-12-16T05:53:01.456Z,94510.28
2022-12-16T05:58:02.971Z,94517.66
2022-12-16T06:03:04.643Z,94518.47
2022-12-16T06:08:06.207Z,94519.28
2022-12-16T06:13:07.653Z,94528.72
2022-12-16T06:18:09.066Z,94534.25
2022-12-16T06:23:10.510Z,94545.38
2022-12-16T06:28:11.943Z,94551.16
2022-12-16T06:33:13.463Z,94559.34
2022-12-16T06:38:14.956Z,94566.56
2022-12-16T06:43:16.384Z,94572.69
2022-12-16T06:48:17.926Z,94584.31
2022-12-16T06:53:19.524Z,94586.69
2022-12-16T06:58:20.994Z,94593.31
2022-12-16T07:03:22.521Z,94601.31
2022-12-16T07:08:23.980Z,94619.38
2022-12-16T07:13:25.462Z,94627.56
2022-12-16T07:18:26.893Z,94642.59
2022-12-16T07:23:28.344Z,94643.59
2022-12-16T07:28:29.823Z,94645.81
2022-12-16T07:33:31.511Z,94651.88
2022-12-16T07:38:33.228Z,94659.50
2022-12-16T07:43:34.968Z,94664.59
2022-12-16T07:48:36.680Z,94676.03
2022-12-16T07:53:38.808Z,94679.59
2022-12-16T07:58:40.865Z,94702.25
2022-12-16T08:03:42.344Z,94702.66
2022-12-16T08:08:43.874Z,94716.47
2022-12-16T08:13:45.296Z,94730.72
2022-12-16T08:18:46.780Z,94737.59
2022-12-16T08:23:48.366Z,94732.31
2022-12-16T08:28:50.404Z,94749.34
2022-12-16T08:33:51.919Z,94754.47
2022-12-16T08:38:54.195Z,94758.00
2022-12-16T08:43:57.243Z,94763.56
2022-12-16T08:48:58.673Z,94761.25
2022-12-16T08:54:00.105Z,94764.75
2022-12-16T08:59:01.644Z,94772.63
2022-12-16T09:04:03.199Z,94781.50
2022-12-16T09:09:04.812Z,94782.31
2022-12-16T09:14:06.304Z,94787.44
2022-12-16T09:19:07.815Z,94799.50
2022-12-16T09:24:09.532Z,94794.22
2022-12-16T09:29:10.964Z,94808.28
2022-12-16T09:34:12.376Z,94814.47
2022-12-16T09:39:13.808Z,94817.06
2022-12-16T09:44:30.531Z,94823.25
2022-12-16T09:49:49.730Z,94815.47
2022-12-16T09:54:51.427Z,94819.44
2022-12-16T10:00:02.610Z,94831.19
2022-12-16T10:05:12.596Z,94843.03
2022-12-16T10:10:29.645Z,94839.00
2022-12-16T10:15:56.269Z,94854.72
2022-12-16T10:20:57.917Z,94846.59
2022-12-16T10:26:12.311Z,94845.47
2022-12-16T10:31:17.135Z,94852.84
2022-12-16T10:36:23.662Z,94854.41
2022-12-16T10:41:29.253Z,94850.91
2022-12-16T10:46:35.079Z,94858.00
2022-12-16T10:51:36.509Z,94869.06
2022-12-16T10:56:43.714Z,94867.50
2022-12-16T11:02:00.576Z,94873.53
2022-12-16T11:07:02.120Z,94873.34
2022-12-16T11:12:32.032Z,94880.50
2022-12-16T11:17:33.466Z,94881.69
2022-12-16T11:22:34.923Z,94882.53
2022-12-16T11:27:37.618Z,94889.47
2022-12-16T11:32:43.715Z,94879.78
2022-12-16T11:37:47.783Z,94878.75
2022-12-16T11:42:49.349Z,94884.91
2022-12-16T11:48:05.753Z,94889.59
2022-12-16T11:53:31.525Z,94887.50
2022-12-16T11:58:36.250Z,94888.22
2022-12-16T12:03:43.894Z,94898.84
2022-12-16T12:08:51.800Z,94895.00
2022-12-16T12:13:56.174Z,94902.81
2022-12-16T12:19:14.737Z,94909.47
2022-12-16T12:24:31.474Z,94916.88
2022-12-16T12:29:44.702Z,94925.28
2022-12-16T12:35:18.270Z,94931.25
2022-12-16T12:40:19.784Z,94926.66
2022-12-16T12:45:39.951Z,94926.66
2022-12-16T12:50:49.927Z,94925.09
2022-12-16T12:56:36.339Z,94928.13
2022-12-16T13:01:42.931Z,94930.19
2022-12-16T13:06:44.765Z,94934.34
2022-12-16T13:12:12.177Z,94950.25
2022-12-16T13:17:13.680Z,94952.88
2022-12-16T13:22:34.093Z,94948.91
2022-12-16T13:27:49.987Z,94965.22
2022-12-16T13:33:04.947Z,94979.09
2022-12-16T13:38:20.551Z,94986.53
2022-12-16T13:43:53.035Z,94990.28
2022-12-16T13:49:34.900Z,94997.97
2022-12-16T13:54:41.616Z,95000.22
2022-12-16T13:59:43.692Z,95002.72
2022-12-16T14:04:52.477Z,95015.31
2022-12-16T14:09:54.003Z,95019.56
2022-12-16T14:15:38.610Z,95031.91
2022-12-16T14:21:04.626Z,95042.81
2022-12-16T14:26:12.190Z,95057.28
2022-12-16T14:31:35.314Z,95072.06
2022-12-16T14:36:39.703Z,95079.78
2022-12-16T14:41:41.205Z,95083.28
2022-12-16T14:46:42.801Z,95088.72
2022-12-16T14:51:48.305Z,95088.72
2022-12-16T14:56:49.805Z,95096.66
2022-12-16T15:01:53.454Z,95100.91
2022-12-16T15:06:55.797Z,95102.22
2022-12-16T15:11:57.443Z,95112.91
2022-12-16T15:16:59.253Z,95125.13
2022-12-16T15:22:01.158Z,95131.44
2022-12-16T15:27:20.979Z,95140.06
2022-12-16T15:32:29.355Z,95148.81
2022-12-16T15:37:39.675Z,95148.53
2022-12-16T15:42:42.010Z,95158.41
2022-12-16T15:47:43.480Z,95177.16
2022-12-16T15:52:45.128Z,95176.72
2022-12-16T15:57:56.521Z,95177.91
2022-12-16T16:02:58.206Z,95183.66
2022-12-16T16:08:03.655Z,95206.69
2022-12-16T16:13:06.372Z,95201.69
2022-12-16T16:18:10.061Z,95210.31
2022-12-16T16:23:12.156Z,95220.81
2022-12-16T16:28:13.626Z,95229.00
2022-12-16T16:33:15.156Z,95227.97
2022-12-16T16:38:18.554Z,95242.00
2022-12-16T16:43:21.229Z,95252.00
2022-12-16T16:48:30.105Z,95247.91
2022-12-16T16:53:31.946Z,95255.19
2022-12-16T16:58:34.386Z,95253.03
2022-12-16T17:03:36.422Z,95273.09
2022-12-16T17:08:38.369Z,95284.31
2022-12-16T17:13:39.799Z,95283.03
2022-12-16T17:18:45.598Z,95295.94
2022-12-16T17:23:49.848Z,95291.84
2022-12-16T17:28:51.362Z,95309.59
2022-12-16T17:33:52.875Z,95318.31
2022-12-16T17:38:54.312Z,95332.97
2022-12-16T17:43:55.734Z,95349.50
2022-12-16T17:48:58.713Z,95351.19
2022-12-16T17:54:02.073Z,95352.97
2022-12-16T17:59:11.057Z,95369.56
2022-12-16T18:04:12.785Z,95369.84
2022-12-16T18:09:14.242Z,95386.63
2022-12-16T18:14:15.670Z,95402.41
2022-12-16T18:19:17.800Z,95401.16
2022-12-16T18:24:19.268Z,95405.69
2022-12-16T18:29:20.847Z,95410.16
2022-12-16T18:34:22.395Z,95427.31
2022-12-16T18:39:24.015Z,95437.06
2022-12-16T18:44:25.500Z,95435.22
2022-12-16T18:49:26.999Z,95440.91
2022-12-16T18:54:28.520Z,95441.34
2022-12-16T18:59:29.964Z,95441.53
2022-12-16T19:04:34.311Z,95445.25
2022-12-16T19:09:35.727Z,95454.16
2022-12-16T19:14:37.136Z,95472.94
2022-12-16T19:19:38.545Z,95474.63
2022-12-16T19:24:40.056Z,95484.16
2022-12-16T19:29:41.554Z,95498.41
2022-12-16T19:34:43.052Z,95500.19
2022-12-16T19:39:44.477Z,95510.56
2022-12-16T19:44:45.978Z,95510.06
2022-12-16T19:49:47.453Z,95516.25
2022-12-16T19:54:48.949Z,95518.34
2022-12-16T19:59:50.395Z,95535.03
2022-12-16T20:04:53.175Z,95541.22
2022-12-16T20:09:57.825Z,95547.56
2022-12-16T20:14:59.335Z,95549.47
2022-12-16T20:20:00.848Z,95549.72
2022-12-16T20:25:02.391Z,95561.03
2022-12-16T20:30:04.524Z,95574.75
2022-12-16T20:35:06.125Z,95579.97
2022-12-16T20:40:08.164Z,95585.47
2022-12-16T20:45:11.687Z,95593.56
2022-12-16T20:50:14.536Z,95602.16
2022-12-16T20:55:16.046Z,95601.22
2022-12-16T21:00:17.617Z,95608.41
2022-12-16T21:05:19.213Z,95612.13
2022-12-16T21:10:20.836Z,95619.84
2022-12-16T21:15:22.392Z,95634.69
2022-12-16T21:20:23.869Z,95633.53
2022-12-16T21:25:25.370Z,95640.47
2022-12-16T21:30:27.191Z,95649.78
2022-12-16T21:35:29.082Z,95654.06
2022-12-16T21:40:30.548Z,95656.19
2022-12-16T21:45:31.993Z,95662.31
2022-12-16T21:50:33.468Z,95672.84
2022-12-16T21:55:35.237Z,95674.16
2022-12-16T22:00:36.746Z,95684.31
2022-12-16T22:05:38.184Z,95699.66
2022-12-16T22:10:39.652Z,95696.16
2022-12-16T22:15:41.060Z,95699.19
2022-12-16T22:20:42.472Z,95707.50
2022-12-16T22:25:44.044Z,95707.59
2022-12-16T22:30:53.057Z,95712.69
2022-12-16T22:36:05.211Z,95722.00
2022-12-16T22:41:06.755Z,95726.88
2022-12-16T22:46:08.334Z,95728.56
2022-12-16T22:51:14.526Z,95737.06
2022-12-16T22:56:16.028Z,95727.13
2022-12-16T23:01:17.477Z,95730.28
2022-12-16T23:06:18.895Z,95733.47
2022-12-16T23:11:25.944Z,95727.44
2022-12-16T23:16:27.516Z,95729.28
2022-12-16T23:21:29.062Z,95728.59
2022-12-16T23:26:30.504Z,95739.75
2022-12-16T23:31:31.995Z,95741.03
2022-12-16T23:36:33.559Z,95738.06
2022-12-16T23:41:34.993Z,95738.22
2022-12-16T23:46:36.521Z,95744.94
2022-12-16T23:51:37.992Z,95738.38
2022-12-16T23:56:39.491Z,95741.78
